createdAt,value
2018-09-08T00:02:05.484Z,56164.25
2018-09-08T00:04:34.598Z,56153.97
2018-09-08T00:07:09.142Z,56124.15
2018-09-08T00:09:38.319Z,56151.91
2018-09-08T00:12:07.745Z,56170.42
2018-09-08T00:14:35.980Z,56122.09
2018-09-08T00:17:10.381Z,56142.66
2018-09-08T00:19:44.859Z,56147.80
2018-09-08T00:22:19.177Z,56185.85
2018-09-08T00:24:53.527Z,56132.38
2018-09-08T00:27:27.919Z,56158.09
2018-09-08T00:29:57.050Z,56168.37
2018-09-08T00:32:26.194Z,56160.14
2018-09-08T00:34:55.291Z,56164.25
2018-09-08T00:37:24.419Z,56170.42
2018-09-08T00:39:53.547Z,56153.97
2018-09-08T00:42:22.666Z,56148.83
2018-09-08T00:44:51.827Z,56158.09
2018-09-08T00:47:20.904Z,56184.82
2018-09-08T00:49:50.074Z,56141.63
2018-09-08T00:52:19.194Z,56161.17
2018-09-08T00:54:48.297Z,56132.38
2018-09-08T00:57:17.410Z,56188.93
2018-09-08T00:59:46.587Z,56157.05
2018-09-08T01:02:15.686Z,56145.75
2018-09-08T01:04:44.831Z,56157.05
2018-09-08T01:07:19.252Z,56152.94
2018-09-08T01:09:48.325Z,56147.80
2018-09-08T01:12:17.468Z,56117.98
2018-09-08T01:14:46.544Z,56143.69
2018-09-08T01:17:15.647Z,56157.05
2018-09-08T01:19:44.800Z,56170.42
2018-09-08T01:22:13.909Z,56155.00
2018-09-08T01:24:43.005Z,56131.35
2018-09-08T01:27:12.153Z,56168.37
2018-09-08T01:29:41.281Z,56155.00
2018-09-08T01:32:10.388Z,56179.68
2018-09-08T01:34:39.541Z,56139.57
2018-09-08T01:37:08.670Z,56152.94
2018-09-08T01:39:37.769Z,56170.42
2018-09-08T01:42:06.902Z,56150.89
2018-09-08T01:44:36.014Z,56149.86
2018-09-08T01:47:05.345Z,56151.91
2018-09-08T01:49:34.430Z,56135.46
2018-09-08T01:52:03.624Z,56185.85
2018-09-08T01:54:32.859Z,56168.37
2018-09-08T01:57:01.947Z,56133.41
2018-09-08T01:59:31.043Z,56114.90
2018-09-08T02:02:00.167Z,56151.91
2018-09-08T02:04:29.282Z,56156.03
2018-09-08T02:06:58.452Z,56133.41
2018-09-08T02:09:27.627Z,56148.83
2018-09-08T02:11:56.755Z,56142.66
2018-09-08T02:14:25.930Z,56128.27
2018-09-08T02:16:55.031Z,56146.77
2018-09-08T02:19:24.169Z,56138.55
2018-09-08T02:21:53.266Z,56153.97
2018-09-08T02:24:22.396Z,56138.55
2018-09-08T02:26:51.569Z,56129.29
2018-09-08T02:29:20.694Z,56130.32
2018-09-08T02:31:49.895Z,56147.80
2018-09-08T02:34:19.314Z,56151.91
2018-09-08T02:36:48.630Z,56142.66
2018-09-08T02:39:17.934Z,56136.49
2018-09-08T02:41:47.070Z,56125.18
2018-09-08T02:44:16.185Z,56137.52
2018-09-08T02:46:45.305Z,56146.77
2018-09-08T02:49:14.441Z,56161.17
2018-09-08T02:51:42.184Z,56165.28
2018-09-08T02:54:09.902Z,56147.80
2018-09-08T02:56:37.598Z,56149.86
2018-09-08T02:59:05.385Z,56139.57
2018-09-08T03:01:33.106Z,56123.12
2018-09-08T03:04:00.931Z,56144.71
2018-09-08T03:06:28.661Z,56139.57
2018-09-08T03:08:56.439Z,56140.61
2018-09-08T03:11:24.211Z,56162.20
2018-09-08T03:13:51.954Z,56138.55
2018-09-08T03:16:19.689Z,56164.25
2018-09-08T03:18:47.431Z,56157.05
2018-09-08T03:21:15.145Z,56140.61
2018-09-08T03:23:42.869Z,56142.66
2018-09-08T03:26:10.608Z,56135.46
2018-09-08T03:28:38.338Z,56174.54
2018-09-08T03:31:06.110Z,56178.65
2018-09-08T03:33:33.873Z,56145.75
2018-09-08T03:36:01.614Z,56141.63
2018-09-08T03:38:29.337Z,56193.05
2018-09-08T03:40:57.080Z,56185.85
2018-09-08T03:43:24.843Z,56140.61
2018-09-08T03:45:52.924Z,56198.19
2018-09-08T03:48:20.641Z,56176.59
2018-09-08T03:50:48.397Z,56150.89
2018-09-08T03:53:16.119Z,56167.34
2018-09-08T03:55:43.883Z,56158.09
2018-09-08T03:58:11.623Z,56186.87
2018-09-08T04:00:39.341Z,56157.05
2018-09-08T04:03:08.490Z,56182.76
2018-09-08T04:05:37.621Z,56149.86
2018-09-08T04:08:06.755Z,56156.03
2018-09-08T04:10:35.875Z,56174.54
2018-09-08T04:13:05.037Z,56151.91
2018-09-08T04:15:34.201Z,56181.73
2018-09-08T04:18:03.376Z,56143.69
2018-09-08T04:20:32.493Z,56178.65
2018-09-08T04:23:01.622Z,56193.05
2018-09-08T04:25:30.719Z,56162.20
2018-09-08T04:27:59.822Z,56157.05
2018-09-08T04:30:28.920Z,56138.55
2018-09-08T04:32:58.045Z,56141.63
2018-09-08T04:35:27.128Z,56152.94
2018-09-08T04:37:56.248Z,56166.31
2018-09-08T04:40:25.353Z,56157.05
2018-09-08T04:42:54.500Z,56132.38
2018-09-08T04:45:23.732Z,56177.62
2018-09-08T04:47:52.912Z,56147.80
2018-09-08T04:50:22.033Z,56166.31
2018-09-08T04:52:51.231Z,56138.55
2018-09-08T04:55:20.381Z,56159.11
2018-09-08T04:57:49.494Z,56161.17
2018-09-08T05:00:18.636Z,56165.28
2018-09-08T05:02:47.790Z,56173.51
2018-09-08T05:05:16.936Z,56172.48
2018-09-08T05:07:46.057Z,56131.35
2018-09-08T05:10:15.173Z,56211.55
2018-09-08T05:12:44.330Z,56143.69
2018-09-08T05:15:13.499Z,56152.94
2018-09-08T05:17:42.645Z,56141.63
2018-09-08T05:20:11.757Z,56141.63
2018-09-08T05:22:40.913Z,56177.62
2018-09-08T05:25:10.052Z,56159.11
2018-09-08T05:27:39.213Z,56151.91
2018-09-08T05:30:14.983Z,56102.56
2018-09-08T05:32:44.126Z,56151.91
2018-09-08T05:35:13.233Z,56129.29
2018-09-08T05:37:42.423Z,56149.86
2018-09-08T05:40:11.519Z,56101.53
2018-09-08T05:42:40.809Z,56149.86
2018-09-08T05:45:09.951Z,56162.20
2018-09-08T05:47:39.075Z,56138.55
2018-09-08T05:50:08.224Z,56160.14
2018-09-08T05:52:37.329Z,56138.55
2018-09-08T05:55:06.433Z,56101.53
2018-09-08T05:57:35.641Z,56122.09
2018-09-08T06:00:04.758Z,56130.32
2018-09-08T06:02:33.962Z,56137.52
2018-09-08T06:05:03.244Z,56109.76
2018-09-08T06:07:32.342Z,56125.18
2018-09-08T06:10:01.474Z,56128.27
2018-09-08T06:12:30.668Z,56119.01
2018-09-08T06:14:59.839Z,56090.22
2018-09-08T06:17:28.996Z,56120.04
2018-09-08T06:19:58.179Z,56126.21
2018-09-08T06:22:27.416Z,56117.98
2018-09-08T06:24:56.676Z,56099.47
2018-09-08T06:27:25.819Z,56105.64
2018-09-08T06:29:55.018Z,56105.64
2018-09-08T06:32:24.112Z,56101.53
2018-09-08T06:34:53.245Z,56098.45
2018-09-08T06:37:22.449Z,56101.53
2018-09-08T06:39:51.615Z,56064.51
2018-09-08T06:42:20.791Z,56132.38
2018-09-08T06:44:50.067Z,56106.67
2018-09-08T06:47:19.184Z,56070.68
2018-09-08T06:49:48.339Z,56093.30
2018-09-08T06:52:17.532Z,56104.62
2018-09-08T06:54:46.613Z,56106.67
2018-09-08T06:57:15.873Z,56078.91
2018-09-08T06:59:45.022Z,56102.56
2018-09-08T07:02:14.167Z,56082.00
2018-09-08T07:04:43.360Z,56062.46
2018-09-08T07:07:12.990Z,56058.34
2018-09-08T07:09:43.650Z,56038.81
2018-09-08T07:12:12.817Z,56052.18
2018-09-08T07:14:42.029Z,56108.73
2018-09-08T07:17:11.166Z,56054.23
2018-09-08T07:19:40.344Z,56078.91
2018-09-08T07:22:09.588Z,56061.43
2018-09-08T07:24:38.685Z,56071.71
2018-09-08T07:27:07.974Z,56049.09
2018-09-08T07:29:37.216Z,56061.43
2018-09-08T07:32:06.335Z,56061.43
2018-09-08T07:34:36.323Z,56062.46
2018-09-08T07:37:05.537Z,56051.14
2018-09-08T07:39:34.636Z,56050.12
2018-09-08T07:42:03.791Z,56067.60
2018-09-08T07:44:32.919Z,56083.02
2018-09-08T07:47:02.062Z,56018.24
2018-09-08T07:49:31.178Z,56050.12
2018-09-08T07:52:00.296Z,56024.41
2018-09-08T07:54:29.477Z,56006.93
2018-09-08T07:56:58.656Z,56036.75
2018-09-08T07:59:27.932Z,56018.24
2018-09-08T08:01:56.991Z,56057.32
2018-09-08T08:04:26.154Z,56042.92
2018-09-08T08:06:55.311Z,56043.95
2018-09-08T08:09:24.480Z,56037.78
2018-09-08T08:11:53.632Z,56015.16
2018-09-08T08:14:22.840Z,56043.95
2018-09-08T08:16:51.970Z,56036.75
2018-09-08T08:19:21.125Z,56023.38
2018-09-08T08:21:50.251Z,56018.24
2018-09-08T08:24:19.454Z,56013.10
2018-09-08T08:26:48.624Z,56015.16
2018-09-08T08:29:17.867Z,56018.24
2018-09-08T08:31:46.980Z,56014.13
2018-09-08T08:34:16.120Z,56036.75
2018-09-08T08:36:45.259Z,56014.13
2018-09-08T08:39:14.530Z,56036.75
2018-09-08T08:41:43.694Z,55999.73
2018-09-08T08:44:12.807Z,56015.16
2018-09-08T08:46:41.933Z,56043.95
2018-09-08T08:49:11.198Z,56004.87
2018-09-08T08:51:57.672Z,56023.38
2018-09-08T08:55:01.806Z,55967.86
2018-09-08T08:57:30.948Z,56003.85
2018-09-08T09:00:00.116Z,55994.59
2018-09-08T09:02:29.244Z,56008.99
2018-09-08T09:04:58.375Z,56011.05
2018-09-08T09:07:27.545Z,56002.82
2018-09-08T09:09:56.652Z,56001.79
2018-09-08T09:12:25.822Z,55993.57
2018-09-08T09:14:54.962Z,55984.31
2018-09-08T09:17:24.111Z,55958.61
2018-09-08T09:20:10.462Z,55918.50
2018-09-08T09:22:56.785Z,55860.93
2018-09-08T09:25:25.903Z,55814.66
2018-09-08T09:27:55.113Z,55831.11
2018-09-08T09:30:24.248Z,55830.08
2018-09-08T09:32:53.332Z,55827.00
2018-09-08T09:35:23.070Z,55829.05
2018-09-08T09:37:52.269Z,55829.05
2018-09-08T09:40:22.391Z,55831.11
2018-09-08T09:42:51.524Z,55830.08
2018-09-08T09:45:20.667Z,55823.91
2018-09-08T09:47:49.808Z,55858.87
2018-09-08T09:50:19.020Z,55882.52
2018-09-08T09:52:48.198Z,55847.56
2018-09-08T09:55:17.384Z,55840.36
2018-09-08T09:57:46.542Z,55905.14
2018-09-08T10:00:20.941Z,55964.78
2018-09-08T10:02:50.665Z,56023.38
2018-09-08T10:05:20.965Z,55930.84
2018-09-08T10:07:50.548Z,55919.54
2018-09-08T10:10:22.979Z,55933.93
2018-09-08T10:12:52.113Z,55918.50
2018-09-08T10:15:21.182Z,55894.86
2018-09-08T10:17:50.304Z,55895.89
2018-09-08T10:20:20.888Z,55860.93
2018-09-08T10:22:49.990Z,55861.95
2018-09-08T10:25:19.986Z,55909.25
2018-09-08T10:27:49.488Z,55916.45
2018-09-08T10:30:18.961Z,55898.97
2018-09-08T10:32:48.258Z,55996.65
2018-09-08T10:35:17.382Z,55948.32
2018-09-08T10:37:46.524Z,55905.14
2018-09-08T10:40:15.682Z,55938.04
2018-09-08T10:42:44.824Z,55929.82
2018-09-08T10:45:14.008Z,55967.86
2018-09-08T10:47:43.126Z,55947.30
2018-09-08T10:50:12.825Z,55982.25
2018-09-08T10:52:46.586Z,55989.45
2018-09-08T10:55:15.872Z,55992.54
2018-09-08T10:57:44.998Z,55964.78
2018-09-08T11:00:15.803Z,56000.76
2018-09-08T11:02:45.223Z,56014.13
2018-09-08T11:05:14.108Z,56027.50
2018-09-08T11:07:43.288Z,55983.28
2018-09-08T11:10:12.413Z,55991.51
2018-09-08T11:12:41.561Z,55999.73
2018-09-08T11:15:10.997Z,56040.86
2018-09-08T11:17:40.292Z,55990.48
2018-09-08T11:20:09.776Z,55987.40
2018-09-08T11:22:38.957Z,55957.58
2018-09-08T11:25:08.063Z,56004.87
2018-09-08T11:27:37.310Z,56015.16
2018-09-08T11:30:07.646Z,55968.89
2018-09-08T11:32:36.842Z,56014.13
2018-09-08T11:35:06.073Z,56023.38
2018-09-08T11:37:35.223Z,56007.96
2018-09-08T11:40:04.412Z,56022.36
2018-09-08T11:42:33.561Z,56013.10
2018-09-08T11:45:02.664Z,56018.24
2018-09-08T11:47:31.781Z,56027.50
2018-09-08T11:50:00.845Z,55971.97
2018-09-08T11:52:30.057Z,55998.71
2018-09-08T11:54:59.198Z,55973.00
2018-09-08T11:57:28.391Z,56003.85
2018-09-08T11:59:57.720Z,55952.44
2018-09-08T12:02:26.810Z,55979.17
2018-09-08T12:04:55.951Z,55991.51
2018-09-08T12:07:25.105Z,56013.10
2018-09-08T12:09:54.189Z,55978.14
2018-09-08T12:12:23.328Z,55984.31
2018-09-08T12:14:52.434Z,55993.57
2018-09-08T12:17:21.606Z,55987.40
2018-09-08T12:19:50.826Z,55983.28
2018-09-08T12:22:20.055Z,55975.06
2018-09-08T12:24:49.220Z,55959.63
2018-09-08T12:27:18.324Z,55966.83
2018-09-08T12:29:47.494Z,55954.49
2018-09-08T12:32:16.652Z,55958.61
2018-09-08T12:34:45.786Z,55960.66
2018-09-08T12:37:14.991Z,55935.98
2018-09-08T12:39:44.232Z,55930.84
2018-09-08T12:42:13.351Z,55927.76
2018-09-08T12:44:42.615Z,55942.16
2018-09-08T12:47:11.709Z,55920.56
2018-09-08T12:49:40.900Z,55931.87
2018-09-08T12:52:10.021Z,55943.18
2018-09-08T12:54:39.178Z,55915.42
2018-09-08T12:57:08.302Z,55935.98
2018-09-08T12:59:37.496Z,55919.54
2018-09-08T13:02:06.693Z,55915.42
2018-09-08T13:04:36.253Z,55952.44
2018-09-08T13:07:05.420Z,55962.72
2018-09-08T13:09:34.607Z,55951.41
2018-09-08T13:12:03.803Z,55900.00
2018-09-08T13:14:32.967Z,55904.11
2018-09-08T13:17:02.061Z,55915.42
2018-09-08T13:19:31.272Z,55878.41
2018-09-08T13:22:00.547Z,55901.03
2018-09-08T13:24:29.702Z,55923.65
2018-09-08T13:26:58.867Z,55905.14
2018-09-08T13:29:28.935Z,55934.96
2018-09-08T13:31:58.347Z,55966.83
2018-09-08T13:34:27.508Z,55915.42
2018-09-08T13:36:56.717Z,55914.39
2018-09-08T13:39:25.867Z,55925.70
2018-09-08T13:41:54.965Z,55935.98
2018-09-08T13:44:24.100Z,55945.24
2018-09-08T13:46:53.281Z,55948.32
2018-09-08T13:49:22.403Z,55947.30
2018-09-08T13:51:51.493Z,55970.95
2018-09-08T13:54:20.662Z,55989.45
2018-09-08T13:56:49.834Z,55948.32
2018-09-08T13:59:18.964Z,55966.83
2018-09-08T14:01:49.442Z,55939.07
2018-09-08T14:04:18.658Z,55931.87
2018-09-08T14:06:47.763Z,55958.61
2018-09-08T14:09:17.035Z,55924.68
2018-09-08T14:11:46.858Z,55934.96
2018-09-08T14:14:16.048Z,55921.59
2018-09-08T14:16:45.208Z,55931.87
2018-09-08T14:19:14.315Z,55914.39
2018-09-08T14:21:43.447Z,55933.93
2018-09-08T14:24:12.679Z,55909.25
2018-09-08T14:26:41.802Z,55930.84
2018-09-08T14:29:10.975Z,55933.93
2018-09-08T14:31:40.139Z,55939.07
2018-09-08T14:34:09.247Z,55961.69
2018-09-08T14:36:38.473Z,55945.24
2018-09-08T14:39:09.433Z,55926.73
2018-09-08T14:41:38.513Z,55926.73
2018-09-08T14:44:07.904Z,55917.48
2018-09-08T14:46:37.128Z,55933.93
2018-09-08T14:49:06.299Z,55909.25
2018-09-08T14:51:35.492Z,55949.35
2018-09-08T14:54:04.594Z,55903.08
2018-09-08T14:56:33.764Z,55947.30
2018-09-08T14:59:03.022Z,55941.13
2018-09-08T15:01:32.180Z,55896.91
2018-09-08T15:04:01.365Z,55929.82
2018-09-08T15:06:30.549Z,55960.66
2018-09-08T15:08:59.730Z,55957.58
2018-09-08T15:11:28.891Z,55970.95
2018-09-08T15:13:58.015Z,55909.25
2018-09-08T15:16:27.095Z,55943.18
2018-09-08T15:18:56.185Z,55942.16
2018-09-08T15:21:25.352Z,55955.52
2018-09-08T15:23:55.109Z,55940.10
2018-09-08T15:26:24.307Z,55953.46
2018-09-08T15:28:53.425Z,55965.80
2018-09-08T15:31:22.537Z,55954.49
2018-09-08T15:33:51.645Z,55952.44
2018-09-08T15:36:20.891Z,55959.63
2018-09-08T15:38:50.070Z,55979.17
2018-09-08T15:41:19.162Z,55962.72
2018-09-08T15:43:48.290Z,55959.63
2018-09-08T15:46:17.501Z,55988.43
2018-09-08T15:48:46.653Z,55973.00
2018-09-08T15:51:15.831Z,55953.46
2018-09-08T15:53:45.032Z,55985.34
2018-09-08T15:56:14.225Z,55970.95
2018-09-08T15:58:43.372Z,56014.13
2018-09-08T16:01:12.475Z,55983.28
2018-09-08T16:03:41.583Z,55958.61
2018-09-08T16:06:10.756Z,55989.45
2018-09-08T16:08:39.858Z,55957.58
2018-09-08T16:11:08.994Z,55981.23
2018-09-08T16:13:38.104Z,55960.66
2018-09-08T16:16:07.233Z,55971.97
2018-09-08T16:18:36.430Z,55963.75
2018-09-08T16:21:05.624Z,55966.83
2018-09-08T16:23:34.785Z,55983.28
2018-09-08T16:26:03.912Z,55977.11
2018-09-08T16:28:33.140Z,55980.20
2018-09-08T16:31:02.517Z,55950.38
2018-09-08T16:33:31.666Z,55981.23
2018-09-08T16:36:00.881Z,55998.71
2018-09-08T16:38:30.144Z,56003.85
2018-09-08T16:40:59.213Z,55991.51
2018-09-08T16:43:28.441Z,55969.92
2018-09-08T16:45:57.619Z,55989.45
2018-09-08T16:48:26.710Z,55979.17
2018-09-08T16:50:55.868Z,56002.82
2018-09-08T16:53:25.065Z,56011.05
2018-09-08T16:55:54.350Z,56002.82
2018-09-08T16:58:23.700Z,56003.85
2018-09-08T17:00:52.964Z,55983.28
2018-09-08T17:03:22.115Z,56010.02
2018-09-08T17:05:51.315Z,55994.59
2018-09-08T17:08:20.535Z,55994.59
2018-09-08T17:10:50.473Z,55991.51
2018-09-08T17:13:19.593Z,55975.06
2018-09-08T17:15:48.747Z,55975.06
2018-09-08T17:18:17.949Z,55987.40
2018-09-08T17:20:47.200Z,56011.05
2018-09-08T17:23:16.436Z,55977.11
2018-09-08T17:25:45.602Z,55979.17
2018-09-08T17:28:14.847Z,56016.19
2018-09-08T17:30:43.962Z,55956.55
2018-09-08T17:33:13.357Z,55990.48
2018-09-08T17:35:42.489Z,55994.59
2018-09-08T17:38:11.581Z,56007.96
2018-09-08T17:40:40.776Z,55978.14
2018-09-08T17:43:09.993Z,56007.96
2018-09-08T17:45:39.352Z,56001.79
2018-09-08T17:48:08.603Z,55984.31
2018-09-08T17:50:37.952Z,56008.99
2018-09-08T17:53:07.836Z,56004.87
2018-09-08T17:55:36.962Z,56011.05
2018-09-08T17:58:06.224Z,56023.38
2018-09-08T18:00:35.361Z,56021.33
2018-09-08T18:03:04.519Z,56021.33
2018-09-08T18:05:33.729Z,55993.57
2018-09-08T18:08:02.914Z,55984.31
2018-09-08T18:10:32.042Z,56024.41
2018-09-08T18:13:01.196Z,56005.90
2018-09-08T18:15:30.342Z,56000.76
2018-09-08T18:17:59.498Z,56006.93
2018-09-08T18:20:28.685Z,56002.82
2018-09-08T18:22:57.866Z,55988.43
2018-09-08T18:25:27.055Z,56004.87
2018-09-08T18:27:56.234Z,56000.76
2018-09-08T18:30:25.387Z,55999.73
2018-09-08T18:32:54.653Z,55995.62
2018-09-08T18:35:23.716Z,56001.79
2018-09-08T18:37:54.181Z,55999.73
2018-09-08T18:40:23.339Z,56007.96
2018-09-08T18:42:52.558Z,56019.27
2018-09-08T18:45:21.928Z,56003.85
2018-09-08T18:47:51.095Z,56025.44
2018-09-08T18:50:20.188Z,55985.34
2018-09-08T18:52:49.364Z,56011.05
2018-09-08T18:55:18.503Z,56028.52
2018-09-08T18:57:47.621Z,56037.78
2018-09-08T19:00:16.820Z,56027.50
2018-09-08T19:02:45.959Z,56019.27
2018-09-08T19:05:15.107Z,55995.62
2018-09-08T19:07:44.230Z,56016.19
2018-09-08T19:10:13.379Z,56003.85
2018-09-08T19:12:42.476Z,55995.62
2018-09-08T19:15:15.555Z,56014.13
2018-09-08T19:17:45.208Z,56023.38
2018-09-08T19:20:19.560Z,56012.07
2018-09-08T19:22:48.863Z,56017.21
2018-09-08T19:25:17.998Z,56013.10
2018-09-08T19:27:47.224Z,55996.65
2018-09-08T19:30:16.346Z,56025.44
2018-09-08T19:32:45.587Z,56016.19
2018-09-08T19:35:19.947Z,55998.71
2018-09-08T19:37:49.169Z,56028.52
2018-09-08T19:40:23.417Z,56017.21
2018-09-08T19:42:52.656Z,56010.02
2018-09-08T19:45:21.782Z,56023.38
2018-09-08T19:47:56.305Z,56021.33
2018-09-08T19:50:25.447Z,55993.57
2018-09-08T19:52:59.865Z,56023.38
2018-09-08T19:55:29.085Z,56049.09
2018-09-08T19:58:03.487Z,56018.24
2018-09-08T20:00:32.664Z,56024.41
2018-09-08T20:03:02.053Z,56018.24
2018-09-08T20:05:31.210Z,56034.70
2018-09-08T20:08:00.427Z,56028.52
2018-09-08T20:10:29.594Z,56014.13
2018-09-08T20:12:58.682Z,56012.07
2018-09-08T20:15:27.879Z,56028.52
2018-09-08T20:17:57.163Z,56010.02
2018-09-08T20:20:26.282Z,56015.16
2018-09-08T20:22:55.466Z,56006.93
2018-09-08T20:25:24.665Z,56061.43
2018-09-08T20:27:54.179Z,56060.40
2018-09-08T20:30:23.345Z,56038.81
2018-09-08T20:32:52.533Z,56007.96
2018-09-08T20:35:21.657Z,56026.47
2018-09-08T20:37:50.832Z,56017.21
2018-09-08T20:40:20.039Z,55984.31
2018-09-08T20:42:49.151Z,56020.30
2018-09-08T20:45:18.282Z,56039.84
2018-09-08T20:47:47.452Z,56037.78
2018-09-08T20:50:16.728Z,56014.13
2018-09-08T20:52:45.868Z,56046.00
2018-09-08T20:55:15.005Z,56028.52
2018-09-08T20:57:44.227Z,56026.47
2018-09-08T21:00:13.387Z,56040.86
2018-09-08T21:02:42.550Z,56008.99
2018-09-08T21:05:11.773Z,56026.47
2018-09-08T21:07:41.055Z,56018.24
2018-09-08T21:10:10.211Z,56005.90
2018-09-08T21:12:39.329Z,56018.24
2018-09-08T21:15:08.477Z,56026.47
2018-09-08T21:17:37.585Z,56021.33
2018-09-08T21:20:06.908Z,56047.03
2018-09-08T21:22:36.104Z,56021.33
2018-09-08T21:25:05.328Z,56018.24
2018-09-08T21:27:34.527Z,55983.28
2018-09-08T21:30:03.662Z,56024.41
2018-09-08T21:32:32.936Z,56036.75
2018-09-08T21:35:02.100Z,56035.72
2018-09-08T21:37:31.233Z,56042.92
2018-09-08T21:40:00.332Z,56012.07
2018-09-08T21:42:29.737Z,56032.64
2018-09-08T21:44:58.847Z,56030.58
2018-09-08T21:47:28.025Z,56002.82
2018-09-08T21:49:57.146Z,56017.21
2018-09-08T21:52:26.283Z,56039.84
2018-09-08T21:54:55.453Z,56038.81
2018-09-08T21:57:24.620Z,56027.50
2018-09-08T21:59:53.774Z,56010.02
2018-09-08T22:02:22.962Z,55986.37
2018-09-08T22:04:52.204Z,55997.68
2018-09-08T22:07:21.355Z,56037.78
2018-09-08T22:09:50.599Z,56027.50
2018-09-08T22:12:19.636Z,56037.78
2018-09-08T22:14:48.812Z,56012.07
2018-09-08T22:17:17.982Z,56016.19
2018-09-08T22:19:47.191Z,56005.90
2018-09-08T22:22:16.413Z,56044.98
2018-09-08T22:24:45.571Z,56040.86
2018-09-08T22:27:14.776Z,56028.52
2018-09-08T22:29:44.000Z,55991.51
2018-09-08T22:32:13.163Z,56016.19
2018-09-08T22:34:42.308Z,56016.19
2018-09-08T22:37:11.454Z,56038.81
2018-09-08T22:39:40.668Z,56025.44
2018-09-08T22:42:09.942Z,56005.90
2018-09-08T22:44:39.273Z,55995.62
2018-09-08T22:47:08.407Z,56021.33
2018-09-08T22:49:37.588Z,56039.84
2018-09-08T22:52:06.733Z,56018.24
2018-09-08T22:54:35.922Z,56026.47
2018-09-08T22:57:05.058Z,56014.13
2018-09-08T22:59:34.195Z,56000.76
2018-09-08T23:02:03.375Z,56007.96
2018-09-08T23:04:32.611Z,56016.19
2018-09-08T23:07:01.702Z,56055.26
2018-09-08T23:09:30.892Z,56029.55
2018-09-08T23:12:00.103Z,56053.20
2018-09-08T23:14:29.302Z,56043.95
2018-09-08T23:16:58.504Z,56031.61
2018-09-08T23:19:27.732Z,56029.55
2018-09-08T23:21:56.879Z,56069.65
2018-09-08T23:24:26.066Z,56047.03
2018-09-08T23:26:55.248Z,56018.24
2018-09-08T23:29:24.585Z,56047.03
2018-09-08T23:31:53.764Z,56030.58
2018-09-08T23:34:22.988Z,56034.70
2018-09-08T23:36:52.183Z,56020.30
2018-09-08T23:39:21.379Z,56031.61
2018-09-08T23:41:50.720Z,56029.55
2018-09-08T23:44:19.877Z,56008.99
2018-09-08T23:46:49.006Z,56037.78
2018-09-08T23:49:18.101Z,56030.58
2018-09-08T23:51:47.221Z,56072.74
2018-09-08T23:54:16.325Z,56030.58
2018-09-08T23:56:45.455Z,56052.18
2018-09-08T23:59:14.566Z,56051.14
